sensor_id;sensor_type;location;lat;lon;timestamp;P1;durP1;ratioP1;P2;durP2;ratioP2
6209;SDS011;3138;52.550;13.148;2023-08-12T00:00:44;7.90;;;5.50;;
6209;SDS011;3138;52.550;13.148;2023-08-12T00:03:11;8.73;;;5.23;;
6209;SDS011;3138;52.550;13.148;2023-08-12T00:05:38;6.53;;;4.10;;
6209;SDS011;3138;52.550;13.148;2023-08-12T00:08:06;5.23;;;4.60;;
6209;SDS011;3138;52.550;13.148;2023-08-12T00:10:33;7.00;;;4.73;;
6209;SDS011;3138;52.550;13.148;2023-08-12T00:13:01;19.40;;;5.23;;
6209;SDS011;3138;52.550;13.148;2023-08-12T00:15:28;12.17;;;4.53;;
6209;SDS011;3138;52.550;13.148;2023-08-12T00:17:55;5.83;;;5.23;;
6209;SDS011;3138;52.550;13.148;2023-08-12T00:20:22;5.50;;;4.90;;
6209;SDS011;3138;52.550;13.148;2023-08-12T00:22:49;14.17;;;6.07;;
6209;SDS011;3138;52.550;13.148;2023-08-12T00:25:16;8.17;;;5.00;;
6209;SDS011;3138;52.550;13.148;2023-08-12T00:27:43;10.53;;;4.87;;
6209;SDS011;3138;52.550;13.148;2023-08-12T00:30:11;6.80;;;5.20;;
6209;SDS011;3138;52.550;13.148;2023-08-12T00:32:38;9.90;;;4.60;;
6209;SDS011;3138;52.550;13.148;2023-08-12T00:35:06;12.07;;;5.20;;
6209;SDS011;3138;52.550;13.148;2023-08-12T00:37:33;6.00;;;5.30;;
6209;SDS011;3138;52.550;13.148;2023-08-12T00:40:00;7.43;;;5.40;;
6209;SDS011;3138;52.550;13.148;2023-08-12T00:42:27;7.73;;;4.50;;
6209;SDS011;3138;52.550;13.148;2023-08-12T00:44:54;4.13;;;3.80;;
6209;SDS011;3138;52.550;13.148;2023-08-12T00:47:22;8.10;;;5.00;;
6209;SDS011;3138;52.550;13.148;2023-08-12T00:49:49;8.70;;;5.07;;
6209;SDS011;3138;52.550;13.148;2023-08-12T00:52:16;6.90;;;4.50;;
6209;SDS011;3138;52.550;13.148;2023-08-12T00:54:44;6.50;;;4.80;;
6209;SDS011;3138;52.550;13.148;2023-08-12T00:57:11;11.07;;;4.23;;
6209;SDS011;3138;52.550;13.148;2023-08-12T00:59:38;10.90;;;4.47;;
6209;SDS011;3138;52.550;13.148;2023-08-12T01:02:07;8.17;;;3.90;;
6209;SDS011;3138;52.550;13.148;2023-08-12T01:04:35;7.70;;;4.47;;
6209;SDS011;3138;52.550;13.148;2023-08-12T01:07:02;5.50;;;4.40;;
6209;SDS011;3138;52.550;13.148;2023-08-12T01:09:29;4.00;;;3.50;;
6209;SDS011;3138;52.550;13.148;2023-08-12T01:11:57;8.93;;;3.77;;
6209;SDS011;3138;52.550;13.148;2023-08-12T01:14:33;11.23;;;4.10;;
6209;SDS011;3138;52.550;13.148;2023-08-12T01:17:05;14.73;;;4.53;;
6209;SDS011;3138;52.550;13.148;2023-08-12T01:19:37;7.57;;;4.10;;
6209;SDS011;3138;52.550;13.148;2023-08-12T01:22:05;5.90;;;3.87;;
6209;SDS011;3138;52.550;13.148;2023-08-12T01:24:36;8.40;;;4.30;;
6209;SDS011;3138;52.550;13.148;2023-08-12T01:27:03;12.23;;;4.30;;
6209;SDS011;3138;52.550;13.148;2023-08-12T01:29:31;8.67;;;3.37;;
6209;SDS011;3138;52.550;13.148;2023-08-12T01:32:01;10.57;;;4.20;;
6209;SDS011;3138;52.550;13.148;2023-08-12T01:34:36;7.93;;;3.60;;
6209;SDS011;3138;52.550;13.148;2023-08-12T01:37:07;4.40;;;3.57;;
6209;SDS011;3138;52.550;13.148;2023-08-12T01:39:38;8.23;;;3.97;;
6209;SDS011;3138;52.550;13.148;2023-08-12T01:42:08;5.80;;;4.07;;
6209;SDS011;3138;52.550;13.148;2023-08-12T01:44:36;8.60;;;4.17;;
6209;SDS011;3138;52.550;13.148;2023-08-12T01:47:03;5.67;;;4.53;;
6209;SDS011;3138;52.550;13.148;2023-08-12T01:49:30;4.27;;;3.87;;
6209;SDS011;3138;52.550;13.148;2023-08-12T01:51:57;9.10;;;4.20;;
6209;SDS011;3138;52.550;13.148;2023-08-12T01:54:24;8.83;;;4.83;;
6209;SDS011;3138;52.550;13.148;2023-08-12T01:56:52;8.70;;;4.67;;
6209;SDS011;3138;52.550;13.148;2023-08-12T01:59:19;7.17;;;3.73;;
6209;SDS011;3138;52.550;13.148;2023-08-12T02:01:46;8.37;;;4.17;;
6209;SDS011;3138;52.550;13.148;2023-08-12T02:04:13;5.10;;;3.67;;
6209;SDS011;3138;52.550;13.148;2023-08-12T02:06:39;8.37;;;4.60;;
6209;SDS011;3138;52.550;13.148;2023-08-12T02:09:06;4.40;;;3.97;;
6209;SDS011;3138;52.550;13.148;2023-08-12T02:11:33;13.93;;;3.47;;
6209;SDS011;3138;52.550;13.148;2023-08-12T02:14:01;9.80;;;4.27;;
6209;SDS011;3138;52.550;13.148;2023-08-12T02:16:28;11.00;;;3.70;;
6209;SDS011;3138;52.550;13.148;2023-08-12T02:18:55;3.87;;;3.30;;
6209;SDS011;3138;52.550;13.148;2023-08-12T02:21:22;5.67;;;4.33;;
6209;SDS011;3138;52.550;13.148;2023-08-12T02:23:48;10.87;;;3.73;;
6209;SDS011;3138;52.550;13.148;2023-08-12T02:26:15;5.00;;;4.50;;
6209;SDS011;3138;52.550;13.148;2023-08-12T02:28:42;6.20;;;4.63;;
6209;SDS011;3138;52.550;13.148;2023-08-12T02:31:10;8.43;;;4.43;;
6209;SDS011;3138;52.550;13.148;2023-08-12T02:33:37;10.47;;;4.27;;
6209;SDS011;3138;52.550;13.148;2023-08-12T02:36:04;9.83;;;4.30;;
6209;SDS011;3138;52.550;13.148;2023-08-12T02:38:31;6.73;;;4.10;;
6209;SDS011;3138;52.550;13.148;2023-08-12T02:40:58;8.20;;;4.10;;
6209;SDS011;3138;52.550;13.148;2023-08-12T02:43:25;32.23;;;5.40;;
6209;SDS011;3138;52.550;13.148;2023-08-12T02:45:52;12.77;;;4.87;;
6209;SDS011;3138;52.550;13.148;2023-08-12T02:48:20;5.93;;;4.17;;
6209;SDS011;3138;52.550;13.148;2023-08-12T02:50:47;6.97;;;4.53;;
6209;SDS011;3138;52.550;13.148;2023-08-12T02:53:14;7.60;;;4.23;;
6209;SDS011;3138;52.550;13.148;2023-08-12T02:55:41;8.57;;;4.20;;
6209;SDS011;3138;52.550;13.148;2023-08-12T02:58:08;6.57;;;3.93;;
6209;SDS011;3138;52.550;13.148;2023-08-12T03:00:35;9.33;;;3.80;;
6209;SDS011;3138;52.550;13.148;2023-08-12T03:03:02;9.50;;;4.87;;
6209;SDS011;3138;52.550;13.148;2023-08-12T03:05:31;7.00;;;4.03;;
6209;SDS011;3138;52.550;13.148;2023-08-12T03:07:58;3.63;;;3.33;;
6209;SDS011;3138;52.550;13.148;2023-08-12T03:10:26;4.30;;;4.00;;
6209;SDS011;3138;52.550;13.148;2023-08-12T03:12:53;13.03;;;4.40;;
6209;SDS011;3138;52.550;13.148;2023-08-12T03:15:20;7.83;;;3.70;;
6209;SDS011;3138;52.550;13.148;2023-08-12T03:17:47;6.00;;;4.40;;
6209;SDS011;3138;52.550;13.148;2023-08-12T03:20:14;7.30;;;4.07;;
6209;SDS011;3138;52.550;13.148;2023-08-12T03:22:42;4.27;;;3.90;;
6209;SDS011;3138;52.550;13.148;2023-08-12T03:25:09;8.90;;;3.90;;
6209;SDS011;3138;52.550;13.148;2023-08-12T03:27:36;7.43;;;4.20;;
6209;SDS011;3138;52.550;13.148;2023-08-12T03:30:02;4.77;;;3.90;;
6209;SDS011;3138;52.550;13.148;2023-08-12T03:32:30;12.10;;;4.33;;
6209;SDS011;3138;52.550;13.148;2023-08-12T03:34:56;14.50;;;4.33;;
6209;SDS011;3138;52.550;13.148;2023-08-12T03:37:24;10.07;;;4.70;;
6209;SDS011;3138;52.550;13.148;2023-08-12T03:39:52;8.80;;;4.43;;
6209;SDS011;3138;52.550;13.148;2023-08-12T03:42:19;11.07;;;4.17;;
6209;SDS011;3138;52.550;13.148;2023-08-12T03:44:46;12.23;;;4.60;;
6209;SDS011;3138;52.550;13.148;2023-08-12T03:47:13;4.93;;;4.40;;
6209;SDS011;3138;52.550;13.148;2023-08-12T03:49:40;7.87;;;4.87;;
6209;SDS011;3138;52.550;13.148;2023-08-12T03:52:06;8.73;;;4.63;;
6209;SDS011;3138;52.550;13.148;2023-08-12T03:54:33;5.23;;;4.83;;
6209;SDS011;3138;52.550;13.148;2023-08-12T03:57:01;8.20;;;4.80;;
6209;SDS011;3138;52.550;13.148;2023-08-12T03:59:28;7.20;;;4.80;;
6209;SDS011;3138;52.550;13.148;2023-08-12T04:01:55;4.53;;;4.13;;
6209;SDS011;3138;52.550;13.148;2023-08-12T04:04:22;6.77;;;5.23;;
6209;SDS011;3138;52.550;13.148;2023-08-12T04:06:49;6.70;;;4.40;;
6209;SDS011;3138;52.550;13.148;2023-08-12T04:09:16;5.80;;;4.30;;
6209;SDS011;3138;52.550;13.148;2023-08-12T04:11:43;9.43;;;4.33;;
6209;SDS011;3138;52.550;13.148;2023-08-12T04:14:12;8.60;;;4.90;;
6209;SDS011;3138;52.550;13.148;2023-08-12T04:16:39;6.73;;;4.43;;
6209;SDS011;3138;52.550;13.148;2023-08-12T04:19:06;17.43;;;4.30;;
6209;SDS011;3138;52.550;13.148;2023-08-12T04:21:33;8.33;;;4.87;;
6209;SDS011;3138;52.550;13.148;2023-08-12T04:24:00;9.93;;;4.80;;
6209;SDS011;3138;52.550;13.148;2023-08-12T04:26:27;9.37;;;5.03;;
6209;SDS011;3138;52.550;13.148;2023-08-12T04:28:54;4.80;;;4.40;;
6209;SDS011;3138;52.550;13.148;2023-08-12T04:31:22;9.90;;;4.50;;
6209;SDS011;3138;52.550;13.148;2023-08-12T04:33:49;9.63;;;5.47;;
6209;SDS011;3138;52.550;13.148;2023-08-12T04:36:17;4.30;;;4.00;;
6209;SDS011;3138;52.550;13.148;2023-08-12T04:38:44;5.37;;;4.00;;
6209;SDS011;3138;52.550;13.148;2023-08-12T04:41:11;9.30;;;4.07;;
6209;SDS011;3138;52.550;13.148;2023-08-12T04:43:38;10.13;;;5.00;;
6209;SDS011;3138;52.550;13.148;2023-08-12T04:46:05;6.30;;;4.00;;
6209;SDS011;3138;52.550;13.148;2023-08-12T04:48:33;6.40;;;4.20;;
6209;SDS011;3138;52.550;13.148;2023-08-12T04:51:00;8.33;;;3.77;;
6209;SDS011;3138;52.550;13.148;2023-08-12T04:53:28;8.30;;;4.90;;
6209;SDS011;3138;52.550;13.148;2023-08-12T04:55:55;16.80;;;4.63;;
6209;SDS011;3138;52.550;13.148;2023-08-12T04:58:22;7.30;;;4.00;;
6209;SDS011;3138;52.550;13.148;2023-08-12T05:00:49;6.43;;;4.50;;
6209;SDS011;3138;52.550;13.148;2023-08-12T05:03:16;6.50;;;3.93;;
6209;SDS011;3138;52.550;13.148;2023-08-12T05:05:47;3.97;;;3.53;;
6209;SDS011;3138;52.550;13.148;2023-08-12T05:08:16;7.23;;;3.90;;
6209;SDS011;3138;52.550;13.148;2023-08-12T05:10:42;5.00;;;3.90;;
6209;SDS011;3138;52.550;13.148;2023-08-12T05:13:09;14.40;;;5.20;;
6209;SDS011;3138;52.550;13.148;2023-08-12T05:15:36;19.03;;;4.27;;
6209;SDS011;3138;52.550;13.148;2023-08-12T05:18:03;7.30;;;4.00;;
6209;SDS011;3138;52.550;13.148;2023-08-12T05:20:31;23.97;;;4.73;;
6209;SDS011;3138;52.550;13.148;2023-08-12T05:22:59;6.80;;;4.50;;
6209;SDS011;3138;52.550;13.148;2023-08-12T05:25:26;6.63;;;3.57;;
6209;SDS011;3138;52.550;13.148;2023-08-12T05:27:53;8.80;;;3.47;;
6209;SDS011;3138;52.550;13.148;2023-08-12T05:30:19;8.10;;;4.50;;
6209;SDS011;3138;52.550;13.148;2023-08-12T05:32:46;4.47;;;3.97;;
6209;SDS011;3138;52.550;13.148;2023-08-12T05:35:13;11.57;;;4.10;;
6209;SDS011;3138;52.550;13.148;2023-08-12T05:37:40;6.13;;;4.20;;
6209;SDS011;3138;52.550;13.148;2023-08-12T05:40:09;8.03;;;4.00;;
6209;SDS011;3138;52.550;13.148;2023-08-12T05:42:36;10.63;;;4.17;;
6209;SDS011;3138;52.550;13.148;2023-08-12T05:45:03;10.77;;;5.00;;
6209;SDS011;3138;52.550;13.148;2023-08-12T05:47:31;8.50;;;4.03;;
6209;SDS011;3138;52.550;13.148;2023-08-12T05:49:58;19.47;;;3.77;;
6209;SDS011;3138;52.550;13.148;2023-08-12T05:52:25;25.83;;;4.47;;
6209;SDS011;3138;52.550;13.148;2023-08-12T05:54:52;6.60;;;3.60;;
6209;SDS011;3138;52.550;13.148;2023-08-12T05:57:20;13.70;;;4.27;;
6209;SDS011;3138;52.550;13.148;2023-08-12T05:59:47;9.30;;;4.50;;
6209;SDS011;3138;52.550;13.148;2023-08-12T06:02:14;5.10;;;3.77;;
6209;SDS011;3138;52.550;13.148;2023-08-12T06:04:41;13.83;;;3.90;;
6209;SDS011;3138;52.550;13.148;2023-08-12T06:07:08;9.40;;;4.07;;
6209;SDS011;3138;52.550;13.148;2023-08-12T06:09:34;7.50;;;4.20;;
6209;SDS011;3138;52.550;13.148;2023-08-12T06:12:01;8.17;;;4.10;;
6209;SDS011;3138;52.550;13.148;2023-08-12T06:14:30;5.03;;;4.47;;
6209;SDS011;3138;52.550;13.148;2023-08-12T06:16:57;10.60;;;3.90;;
6209;SDS011;3138;52.550;13.148;2023-08-12T06:19:23;6.97;;;4.60;;
6209;SDS011;3138;52.550;13.148;2023-08-12T06:21:50;7.73;;;3.50;;
6209;SDS011;3138;52.550;13.148;2023-08-12T06:24:17;8.73;;;4.47;;
6209;SDS011;3138;52.550;13.148;2023-08-12T06:26:44;5.27;;;4.10;;
6209;SDS011;3138;52.550;13.148;2023-08-12T06:29:11;7.20;;;4.10;;
6209;SDS011;3138;52.550;13.148;2023-08-12T06:31:39;7.60;;;4.33;;
6209;SDS011;3138;52.550;13.148;2023-08-12T06:34:06;9.20;;;4.60;;
6209;SDS011;3138;52.550;13.148;2023-08-12T06:36:32;6.73;;;4.00;;
6209;SDS011;3138;52.550;13.148;2023-08-12T06:38:59;6.47;;;4.80;;
6209;SDS011;3138;52.550;13.148;2023-08-12T06:41:26;8.33;;;4.70;;
6209;SDS011;3138;52.550;13.148;2023-08-12T06:43:53;5.83;;;4.30;;
6209;SDS011;3138;52.550;13.148;2023-08-12T06:46:20;8.90;;;4.47;;
6209;SDS011;3138;52.550;13.148;2023-08-12T06:48:48;9.20;;;4.77;;
6209;SDS011;3138;52.550;13.148;2023-08-12T06:51:15;7.63;;;4.27;;
6209;SDS011;3138;52.550;13.148;2023-08-12T06:53:41;3.90;;;3.50;;
6209;SDS011;3138;52.550;13.148;2023-08-12T06:56:08;3.93;;;3.60;;
6209;SDS011;3138;52.550;13.148;2023-08-12T06:58:35;7.87;;;3.97;;
6209;SDS011;3138;52.550;13.148;2023-08-12T07:01:02;11.70;;;5.00;;
6209;SDS011;3138;52.550;13.148;2023-08-12T07:03:29;4.20;;;3.80;;
6209;SDS011;3138;52.550;13.148;2023-08-12T07:05:57;9.30;;;4.50;;
6209;SDS011;3138;52.550;13.148;2023-08-12T07:08:24;8.50;;;4.67;;
6209;SDS011;3138;52.550;13.148;2023-08-12T07:10:52;9.03;;;4.40;;
6209;SDS011;3138;52.550;13.148;2023-08-12T07:13:19;12.50;;;4.20;;
6209;SDS011;3138;52.550;13.148;2023-08-12T07:15:46;4.73;;;3.70;;
6209;SDS011;3138;52.550;13.148;2023-08-12T07:18:12;7.97;;;3.77;;
6209;SDS011;3138;52.550;13.148;2023-08-12T07:20:39;7.03;;;4.50;;
6209;SDS011;3138;52.550;13.148;2023-08-12T07:23:07;12.93;;;3.83;;
6209;SDS011;3138;52.550;13.148;2023-08-12T07:25:34;6.30;;;3.57;;
6209;SDS011;3138;52.550;13.148;2023-08-12T07:28:01;8.50;;;3.70;;
6209;SDS011;3138;52.550;13.148;2023-08-12T07:30:28;5.57;;;4.03;;
6209;SDS011;3138;52.550;13.148;2023-08-12T07:32:55;6.53;;;4.33;;
6209;SDS011;3138;52.550;13.148;2023-08-12T07:35:22;8.30;;;3.83;;
6209;SDS011;3138;52.550;13.148;2023-08-12T07:37:48;5.70;;;3.73;;
6209;SDS011;3138;52.550;13.148;2023-08-12T07:40:17;6.00;;;4.23;;
6209;SDS011;3138;52.550;13.148;2023-08-12T07:42:43;4.80;;;3.30;;
6209;SDS011;3138;52.550;13.148;2023-08-12T07:45:10;4.73;;;4.13;;
6209;SDS011;3138;52.550;13.148;2023-08-12T07:47:37;4.80;;;4.30;;
6209;SDS011;3138;52.550;13.148;2023-08-12T07:50:04;12.03;;;3.67;;
6209;SDS011;3138;52.550;13.148;2023-08-12T07:52:32;8.13;;;4.13;;
6209;SDS011;3138;52.550;13.148;2023-08-12T07:54:59;9.03;;;3.67;;
6209;SDS011;3138;52.550;13.148;2023-08-12T07:57:27;5.90;;;3.63;;
6209;SDS011;3138;52.550;13.148;2023-08-12T07:59:54;4.70;;;4.30;;
6209;SDS011;3138;52.550;13.148;2023-08-12T08:02:20;5.83;;;4.20;;
6209;SDS011;3138;52.550;13.148;2023-08-12T08:04:47;9.13;;;4.10;;
6209;SDS011;3138;52.550;13.148;2023-08-12T08:07:15;8.87;;;4.43;;
6209;SDS011;3138;52.550;13.148;2023-08-12T08:09:42;6.30;;;4.70;;
6209;SDS011;3138;52.550;13.148;2023-08-12T08:12:09;7.20;;;4.40;;
6209;SDS011;3138;52.550;13.148;2023-08-12T08:14:38;8.80;;;4.30;;
6209;SDS011;3138;52.550;13.148;2023-08-12T08:17:05;12.50;;;4.80;;
6209;SDS011;3138;52.550;13.148;2023-08-12T08:19:32;6.63;;;5.20;;
6209;SDS011;3138;52.550;13.148;2023-08-12T08:21:59;15.27;;;5.03;;
6209;SDS011;3138;52.550;13.148;2023-08-12T08:24:26;6.20;;;4.50;;
6209;SDS011;3138;52.550;13.148;2023-08-12T08:26:53;5.43;;;4.73;;
6209;SDS011;3138;52.550;13.148;2023-08-12T08:29:20;8.03;;;5.17;;
6209;SDS011;3138;52.550;13.148;2023-08-12T08:31:49;7.20;;;4.67;;
6209;SDS011;3138;52.550;13.148;2023-08-12T08:34:16;9.80;;;4.23;;
6209;SDS011;3138;52.550;13.148;2023-08-12T08:36:43;7.53;;;4.30;;
6209;SDS011;3138;52.550;13.148;2023-08-12T08:39:10;12.30;;;4.13;;
6209;SDS011;3138;52.550;13.148;2023-08-12T08:41:37;6.03;;;3.80;;
6209;SDS011;3138;52.550;13.148;2023-08-12T08:44:06;9.70;;;4.67;;
6209;SDS011;3138;52.550;13.148;2023-08-12T08:46:34;12.57;;;4.87;;
6209;SDS011;3138;52.550;13.148;2023-08-12T08:49:03;9.20;;;5.10;;
6209;SDS011;3138;52.550;13.148;2023-08-12T08:51:31;16.00;;;5.00;;
6209;SDS011;3138;52.550;13.148;2023-08-12T08:53:58;4.60;;;4.27;;
6209;SDS011;3138;52.550;13.148;2023-08-12T08:56:25;8.80;;;4.77;;
6209;SDS011;3138;52.550;13.148;2023-08-12T08:58:53;6.13;;;4.83;;
6209;SDS011;3138;52.550;13.148;2023-08-12T09:01:20;10.53;;;5.53;;
6209;SDS011;3138;52.550;13.148;2023-08-12T09:03:48;15.13;;;4.63;;
6209;SDS011;3138;52.550;13.148;2023-08-12T09:06:20;14.63;;;4.73;;
6209;SDS011;3138;52.550;13.148;2023-08-12T09:08:48;6.10;;;4.90;;
6209;SDS011;3138;52.550;13.148;2023-08-12T09:11:17;13.43;;;5.30;;
6209;SDS011;3138;52.550;13.148;2023-08-12T09:13:44;14.03;;;5.37;;
6209;SDS011;3138;52.550;13.148;2023-08-12T09:16:11;10.10;;;4.63;;
6209;SDS011;3138;52.550;13.148;2023-08-12T09:18:39;11.43;;;4.70;;
6209;SDS011;3138;52.550;13.148;2023-08-12T09:21:06;11.43;;;5.20;;
6209;SDS011;3138;52.550;13.148;2023-08-12T09:23:36;8.90;;;5.07;;
6209;SDS011;3138;52.550;13.148;2023-08-12T09:26:08;27.80;;;5.73;;
6209;SDS011;3138;52.550;13.148;2023-08-12T09:28:38;12.70;;;4.83;;
6209;SDS011;3138;52.550;13.148;2023-08-12T09:31:05;9.60;;;4.70;;
6209;SDS011;3138;52.550;13.148;2023-08-12T09:33:33;12.93;;;6.17;;
6209;SDS011;3138;52.550;13.148;2023-08-12T09:36:05;6.50;;;5.33;;
6209;SDS011;3138;52.550;13.148;2023-08-12T09:38:32;14.20;;;5.20;;
6209;SDS011;3138;52.550;13.148;2023-08-12T09:41:00;12.00;;;4.53;;
6209;SDS011;3138;52.550;13.148;2023-08-12T09:43:28;12.13;;;5.30;;
6209;SDS011;3138;52.550;13.148;2023-08-12T09:45:55;9.57;;;5.13;;
6209;SDS011;3138;52.550;13.148;2023-08-12T09:48:23;5.63;;;5.10;;
6209;SDS011;3138;52.550;13.148;2023-08-12T09:50:51;11.00;;;4.50;;
6209;SDS011;3138;52.550;13.148;2023-08-12T09:53:19;8.30;;;4.63;;
6209;SDS011;3138;52.550;13.148;2023-08-12T09:55:46;6.13;;;5.50;;
6209;SDS011;3138;52.550;13.148;2023-08-12T09:58:17;5.23;;;4.70;;
6209;SDS011;3138;52.550;13.148;2023-08-12T10:00:45;5.97;;;5.00;;
6209;SDS011;3138;52.550;13.148;2023-08-12T10:03:12;10.03;;;4.73;;
6209;SDS011;3138;52.550;13.148;2023-08-12T10:05:41;5.67;;;5.10;;
6209;SDS011;3138;52.550;13.148;2023-08-12T10:08:08;9.90;;;5.40;;
6209;SDS011;3138;52.550;13.148;2023-08-12T10:10:36;9.80;;;5.57;;
6209;SDS011;3138;52.550;13.148;2023-08-12T10:13:03;13.53;;;5.63;;
6209;SDS011;3138;52.550;13.148;2023-08-12T10:15:33;11.27;;;5.70;;
6209;SDS011;3138;52.550;13.148;2023-08-12T10:18:01;9.17;;;5.27;;
6209;SDS011;3138;52.550;13.148;2023-08-12T10:20:30;7.00;;;5.80;;
6209;SDS011;3138;52.550;13.148;2023-08-12T10:22:59;7.47;;;5.80;;
6209;SDS011;3138;52.550;13.148;2023-08-12T10:25:30;12.53;;;5.50;;
6209;SDS011;3138;52.550;13.148;2023-08-12T10:27:59;10.17;;;5.40;;
6209;SDS011;3138;52.550;13.148;2023-08-12T10:30:28;8.20;;;5.27;;
6209;SDS011;3138;52.550;13.148;2023-08-12T10:32:57;6.70;;;5.23;;
6209;SDS011;3138;52.550;13.148;2023-08-12T10:35:39;9.80;;;5.23;;
6209;SDS011;3138;52.550;13.148;2023-08-12T10:38:11;12.40;;;5.50;;
6209;SDS011;3138;52.550;13.148;2023-08-12T10:40:40;16.80;;;6.70;;
6209;SDS011;3138;52.550;13.148;2023-08-12T10:43:07;6.77;;;5.20;;
6209;SDS011;3138;52.550;13.148;2023-08-12T10:45:41;10.43;;;5.03;;
6209;SDS011;3138;52.550;13.148;2023-08-12T10:48:15;10.60;;;4.97;;
6209;SDS011;3138;52.550;13.148;2023-08-12T10:50:46;11.43;;;5.70;;
6209;SDS011;3138;52.550;13.148;2023-08-12T10:53:25;8.30;;;5.20;;
6209;SDS011;3138;52.550;13.148;2023-08-12T10:55:56;8.23;;;5.40;;
6209;SDS011;3138;52.550;13.148;2023-08-12T10:58:23;9.23;;;5.90;;
6209;SDS011;3138;52.550;13.148;2023-08-12T11:00:52;5.97;;;5.47;;
6209;SDS011;3138;52.550;13.148;2023-08-12T11:03:21;11.33;;;5.33;;
6209;SDS011;3138;52.550;13.148;2023-08-12T11:05:48;9.20;;;5.73;;
6209;SDS011;3138;52.550;13.148;2023-08-12T11:08:20;7.40;;;5.23;;
6209;SDS011;3138;52.550;13.148;2023-08-12T11:10:51;5.57;;;5.00;;
6209;SDS011;3138;52.550;13.148;2023-08-12T11:13:20;9.30;;;5.10;;
6209;SDS011;3138;52.550;13.148;2023-08-12T11:15:47;6.93;;;5.57;;
6209;SDS011;3138;52.550;13.148;2023-08-12T11:18:15;19.93;;;5.23;;
6209;SDS011;3138;52.550;13.148;2023-08-12T11:20:45;10.87;;;5.30;;
6209;SDS011;3138;52.550;13.148;2023-08-12T11:23:13;12.80;;;5.70;;
6209;SDS011;3138;52.550;13.148;2023-08-12T11:25:40;9.37;;;5.20;;
6209;SDS011;3138;52.550;13.148;2023-08-12T11:28:09;10.80;;;4.47;;
6209;SDS011;3138;52.550;13.148;2023-08-12T11:30:36;8.33;;;5.20;;
6209;SDS011;3138;52.550;13.148;2023-08-12T11:33:03;8.50;;;5.00;;
6209;SDS011;3138;52.550;13.148;2023-08-12T11:35:30;12.33;;;5.47;;
6209;SDS011;3138;52.550;13.148;2023-08-12T11:37:58;10.73;;;5.37;;
6209;SDS011;3138;52.550;13.148;2023-08-12T11:40:26;5.70;;;5.07;;
6209;SDS011;3138;52.550;13.148;2023-08-12T11:42:54;15.50;;;6.10;;
6209;SDS011;3138;52.550;13.148;2023-08-12T11:45:21;6.37;;;5.13;;
6209;SDS011;3138;52.550;13.148;2023-08-12T11:47:50;5.07;;;4.57;;
6209;SDS011;3138;52.550;13.148;2023-08-12T11:50:18;10.97;;;4.67;;
6209;SDS011;3138;52.550;13.148;2023-08-12T11:52:46;17.23;;;5.20;;
6209;SDS011;3138;52.550;13.148;2023-08-12T11:55:14;9.07;;;5.57;;
6209;SDS011;3138;52.550;13.148;2023-08-12T11:57:42;4.83;;;4.43;;
6209;SDS011;3138;52.550;13.148;2023-08-12T12:00:10;6.43;;;5.60;;
6209;SDS011;3138;52.550;13.148;2023-08-12T12:02:40;11.30;;;4.93;;
6209;SDS011;3138;52.550;13.148;2023-08-12T12:05:08;11.10;;;6.10;;
6209;SDS011;3138;52.550;13.148;2023-08-12T12:07:37;6.13;;;5.53;;
6209;SDS011;3138;52.550;13.148;2023-08-12T12:10:05;6.30;;;4.93;;
6209;SDS011;3138;52.550;13.148;2023-08-12T12:12:34;20.53;;;5.17;;
6209;SDS011;3138;52.550;13.148;2023-08-12T12:15:01;7.90;;;5.60;;
6209;SDS011;3138;52.550;13.148;2023-08-12T12:17:29;6.90;;;6.10;;
6209;SDS011;3138;52.550;13.148;2023-08-12T12:19:56;5.93;;;5.47;;
6209;SDS011;3138;52.550;13.148;2023-08-12T12:22:28;7.63;;;5.80;;
6209;SDS011;3138;52.550;13.148;2023-08-12T12:24:57;8.03;;;6.40;;
6209;SDS011;3138;52.550;13.148;2023-08-12T12:27:25;12.83;;;6.07;;
6209;SDS011;3138;52.550;13.148;2023-08-12T12:29:53;5.97;;;5.10;;
6209;SDS011;3138;52.550;13.148;2023-08-12T12:32:20;10.30;;;5.53;;
6209;SDS011;3138;52.550;13.148;2023-08-12T12:34:47;5.53;;;5.03;;
6209;SDS011;3138;52.550;13.148;2023-08-12T12:37:14;9.83;;;5.10;;
6209;SDS011;3138;52.550;13.148;2023-08-12T12:39:41;9.37;;;5.93;;
6209;SDS011;3138;52.550;13.148;2023-08-12T12:42:08;9.40;;;5.67;;
6209;SDS011;3138;52.550;13.148;2023-08-12T12:44:36;9.13;;;6.07;;
6209;SDS011;3138;52.550;13.148;2023-08-12T12:47:04;6.77;;;6.10;;
6209;SDS011;3138;52.550;13.148;2023-08-12T12:49:31;12.47;;;5.67;;
6209;SDS011;3138;52.550;13.148;2023-08-12T12:51:58;6.43;;;5.87;;
6209;SDS011;3138;52.550;13.148;2023-08-12T12:54:25;7.23;;;5.30;;
6209;SDS011;3138;52.550;13.148;2023-08-12T12:56:52;8.03;;;5.63;;
6209;SDS011;3138;52.550;13.148;2023-08-12T12:59:19;10.83;;;5.47;;
6209;SDS011;3138;52.550;13.148;2023-08-12T13:01:46;13.80;;;5.33;;
6209;SDS011;3138;52.550;13.148;2023-08-12T13:04:14;6.03;;;5.43;;
6209;SDS011;3138;52.550;13.148;2023-08-12T13:06:41;9.33;;;5.30;;
6209;SDS011;3138;52.550;13.148;2023-08-12T13:09:08;5.73;;;5.23;;
6209;SDS011;3138;52.550;13.148;2023-08-12T13:11:35;5.20;;;4.70;;
6209;SDS011;3138;52.550;13.148;2023-08-12T13:14:01;7.90;;;5.70;;
6209;SDS011;3138;52.550;13.148;2023-08-12T13:16:29;6.47;;;4.80;;
6209;SDS011;3138;52.550;13.148;2023-08-12T13:18:56;8.37;;;4.77;;
6209;SDS011;3138;52.550;13.148;2023-08-12T13:21:24;5.43;;;4.93;;
6209;SDS011;3138;52.550;13.148;2023-08-12T13:23:52;9.67;;;5.73;;
6209;SDS011;3138;52.550;13.148;2023-08-12T13:26:20;11.13;;;4.93;;
6209;SDS011;3138;52.550;13.148;2023-08-12T13:28:47;8.80;;;4.70;;
6209;SDS011;3138;52.550;13.148;2023-08-12T13:31:14;5.83;;;5.33;;
6209;SDS011;3138;52.550;13.148;2023-08-12T13:33:41;10.53;;;4.60;;
6209;SDS011;3138;52.550;13.148;2023-08-12T13:36:08;5.73;;;5.10;;
6209;SDS011;3138;52.550;13.148;2023-08-12T13:38:36;5.30;;;4.80;;
6209;SDS011;3138;52.550;13.148;2023-08-12T13:41:03;6.93;;;4.40;;
6209;SDS011;3138;52.550;13.148;2023-08-12T13:43:30;15.93;;;5.13;;
6209;SDS011;3138;52.550;13.148;2023-08-12T13:45:56;5.43;;;4.77;;
6209;SDS011;3138;52.550;13.148;2023-08-12T13:48:23;6.40;;;4.70;;
6209;SDS011;3138;52.550;13.148;2023-08-12T13:50:50;15.80;;;5.73;;
6209;SDS011;3138;52.550;13.148;2023-08-12T13:53:17;10.23;;;4.10;;
6209;SDS011;3138;52.550;13.148;2023-08-12T13:55:45;4.80;;;4.40;;
6209;SDS011;3138;52.550;13.148;2023-08-12T13:58:12;5.83;;;4.23;;
6209;SDS011;3138;52.550;13.148;2023-08-12T14:00:39;4.90;;;4.50;;
6209;SDS011;3138;52.550;13.148;2023-08-12T14:03:06;5.23;;;4.33;;
6209;SDS011;3138;52.550;13.148;2023-08-12T14:05:33;7.10;;;5.13;;
6209;SDS011;3138;52.550;13.148;2023-08-12T14:08:00;7.37;;;4.87;;
6209;SDS011;3138;52.550;13.148;2023-08-12T14:10:27;10.53;;;4.53;;
6209;SDS011;3138;52.550;13.148;2023-08-12T14:12:55;7.20;;;4.10;;
6209;SDS011;3138;52.550;13.148;2023-08-12T14:15:22;5.60;;;4.87;;
6209;SDS011;3138;52.550;13.148;2023-08-12T14:17:49;5.93;;;4.50;;
6209;SDS011;3138;52.550;13.148;2023-08-12T14:20:16;4.83;;;3.93;;
6209;SDS011;3138;52.550;13.148;2023-08-12T14:22:43;5.43;;;3.70;;
6209;SDS011;3138;52.550;13.148;2023-08-12T14:25:10;6.30;;;4.20;;
6209;SDS011;3138;52.550;13.148;2023-08-12T14:27:37;9.30;;;4.27;;
6209;SDS011;3138;52.550;13.148;2023-08-12T14:30:06;5.00;;;3.90;;
6209;SDS011;3138;52.550;13.148;2023-08-12T14:32:34;4.30;;;3.90;;
6209;SDS011;3138;52.550;13.148;2023-08-12T14:35:00;6.73;;;4.50;;
6209;SDS011;3138;52.550;13.148;2023-08-12T14:37:27;6.63;;;3.70;;
6209;SDS011;3138;52.550;13.148;2023-08-12T14:39:54;4.33;;;3.70;;
6209;SDS011;3138;52.550;13.148;2023-08-12T14:42:21;5.10;;;3.80;;
6209;SDS011;3138;52.550;13.148;2023-08-12T14:44:48;8.97;;;4.03;;
6209;SDS011;3138;52.550;13.148;2023-08-12T14:47:16;8.13;;;3.57;;
6209;SDS011;3138;52.550;13.148;2023-08-12T14:49:44;4.00;;;3.63;;
6209;SDS011;3138;52.550;13.148;2023-08-12T14:52:15;6.03;;;3.80;;
6209;SDS011;3138;52.550;13.148;2023-08-12T14:54:43;4.93;;;3.50;;
6209;SDS011;3138;52.550;13.148;2023-08-12T14:57:10;4.60;;;3.37;;
6209;SDS011;3138;52.550;13.148;2023-08-12T14:59:37;9.13;;;3.60;;